Okay, Oklahoma
Current Conditions -  °F | °C
As of 10:53 PM on Friday 24 Oct 2014 (Local Time) from KMKO Reporting Station
Clear Clear  
Wind Chill: 61°   Ceiling: Unl
Heat Index: 61°   Visibility: 10mi
Dew Point: 58°   Wind: 5mph
Humidity: 90%   Direction: 150°SSE
Pressure: 30.08"   Gusts: NA
Location:  35.85°N, 95.32°W
Report Text: KMKO 250353Z AUTO 15004KT 10SM CLR 16/14 A3008 RMK AO2 SLP181 T01610144
Loading
Personal Weather Stations






























Interactive Weather Map
Tropical Storm Tracking
New forecast layout! Learn more

10-Day Weather Forecast

Advertisements
Track Severe Weather on mobile